Grande Sierra Leone — IBOM — position and weather

sailwx.info

Track history (hours):
 
Tides and Currents Weather Stations Pressure Air Temp Water Temp Dewpoint Dewpoint Depression Visibility Wind Speed Wind Dir Waves Ship Positions

Grande Sierra Leone

Last reported at 2018-Jun-19 04:20 UTC. Time now 2018-Jun-19 18:28 UTC.
Position N 36°03' W 027°38'.

Length 212 m; draft 8.4 m.

Type: Cargo ship. MMSI: 247310400.

Date/timePositionNaut miles runAvg speedWind from/ knotsBaromVisibWave heightAir tempDewpointWater temp
2018-Jun-19 04:20N 36°03' W 027°38'617.0
2018-Jun-19 04:00N 36°03' W 027°31'1217.1
2018-Jun-19 03:18N 36°03' W 027°16'616.8
2018-Jun-19 02:55N 36°03' W 027°08'1616.9
2018-Jun-19 01:58N 36°03' W 026°48'816.8
2018-Jun-19 01:29N 36°03' W 026°38'4016.8
2018-Jun-18 23:07N 36°03' W 025°49'216.3
2018-Jun-18 23:00N 36°03' W 025°47'917.0
2018-Jun-18 22:30N 36°03' W 025°36'917.3
2018-Jun-18 22:00N 36°03' W 025°25'917.1
2018-Jun-18 21:30N 36°02' W 025°15'917.4
2018-Jun-18 21:01N 36°02' W 025°04'917.9
2018-Jun-18 20:30N 36°03' W 024°53'917.9
2018-Jun-18 20:00N 36°02' W 024°42'917.8
2018-Jun-18 19:31N 36°02' W 024°31'917.7
2018-Jun-18 19:00N 36°02' W 024°20'917.4
2018-Jun-18 18:30N 36°02' W 024°09'917.2
2018-Jun-18 18:01N 36°02' W 023°59'917.3
2018-Jun-18 17:30N 36°02' W 023°48'1317.2
2018-Jun-18 16:46N 36°02' W 023°32'617.6
2018-Jun-18 16:24N 36°02' W 023°24'717.2
2018-Jun-18 16:00N 36°02' W 023°16'917.3
2018-Jun-18 15:28N 36°02' W 023°05'917.3
2018-Jun-18 14:55N 36°02' W 022°53'917.1
2018-Jun-18 14:25N 36°02' W 022°42'717.5
2018-Jun-18 14:00N 36°02' W 022°33'1917.6
2018-Jun-18 12:55N 36°02' W 022°09'65316.8
2018-Jun-16 22:01N 35°58' W 008°42'116.6
2018-Jun-16 21:58N 35°58' W 008°41'1616.4
2018-Jun-16 21:00N 35°58' W 008°22'2416.7
2018-Jun-16 19:33N 35°58' W 007°52'116.9
2018-Jun-16 19:30N 35°57' W 007°51'2616.8
2018-Jun-16 17:56N 35°57' W 007°19'8516.7
2018-Jun-16 12:52N 35°58' W 005°34'515.1
2018-Jun-16 12:30N 35°59' W 005°28'714.1
2018-Jun-16 12:00N 36°02' W 005°19'21716.3
2018-Jun-15 22:41N 36°40' W 000°55'317.2
2018-Jun-15 22:29N 36°41' W 000°51'917.2
2018-Jun-15 21:59N 36°44' W 000°41'816.9
2018-Jun-15 21:30N 36°47' W 000°31'917.1
2018-Jun-15 21:00N 36°50' W 000°21'917.4
2018-Jun-15 20:30N 36°53' W 000°11'917.5
2018-Jun-15 20:00N 36°56' W 000°01'917.2
2018-Jun-15 19:30N 36°59' E 000°09'917.3
2018-Jun-15 19:00N 37°02' E 000°19'917.2
2018-Jun-15 18:30N 37°05' E 000°29'917.3
2018-Jun-15 18:00N 37°09' E 000°40'917.5
2018-Jun-15 17:30N 37°12' E 000°50'917.4
2018-Jun-15 17:00N 37°15' E 000°60'917.3
2018-Jun-15 16:30N 37°18' E 001°10'917.3
2018-Jun-15 16:00N 37°21' E 001°20'917.3
2018-Jun-15 15:30N 37°24' E 001°30'917.2
2018-Jun-15 15:00N 37°27' E 001°41'816.9
2018-Jun-15 14:30N 37°30' E 001°51'917.0
2018-Jun-15 13:58N 37°33' E 002°01'3517.1
2018-Jun-15 11:56N 37°46' E 002°42'716.5
2018-Jun-15 11:30N 37°48' E 002°51'816.2
2018-Jun-15 11:00N 37°51' E 003°00'815.9
2018-Jun-15 10:29N 37°54' E 003°10'815.9
2018-Jun-15 10:00N 37°57' E 003°19'815.8
2018-Jun-15 09:30N 37°59' E 003°29'815.8
2018-Jun-15 09:00N 38°01' E 003°38'56016.1
2018-Jun-13 22:17N 38°48' E 015°31'1516.4
2018-Jun-13 21:22N 38°36' E 015°43'716.3
2018-Jun-13 20:56N 38°31' E 015°49'5 0.2
2018-Jun-12 16:14N 38°28' E 015°55'5 4.0
2018-Jun-12 15:00N 38°30' E 015°49'5 5.7
2018-Jun-12 14:13N 38°33' E 015°45'417.2
2018-Jun-12 14:00N 38°36' E 015°43'9918.0
2018-Jun-12 08:31N 40°05' E 014°47'618.0
2018-Jun-12 08:11N 40°10' E 014°44'517.5
2018-Jun-12 07:52N 40°15' E 014°42'1317.6
2018-Jun-12 07:09N 40°28' E 014°42'317.7
2018-Jun-12 07:00N 40°31' E 014°42'6 0.1
2018-Jun-10 15:23N 40°37' E 014°43'614.1
2018-Jun-10 14:59N 40°32' E 014°38'1414.2
2018-Jun-10 14:00N 40°20' E 014°28'714.1
2018-Jun-10 13:30N 40°14' E 014°24'612.1
2018-Jun-10 13:00N 40°12' E 014°16'714.5
2018-Jun-10 12:30N 40°15' E 014°07'714.6
2018-Jun-10 12:00N 40°19' E 013°59'714.6
2018-Jun-10 11:30N 40°22' E 013°51'714.9
2018-Jun-10 11:00N 40°25' E 013°42'714.8
2018-Jun-10 10:30N 40°29' E 013°33'1114.7
2018-Jun-10 09:45N 40°33' E 013°19'414.6
2018-Jun-10 09:30N 40°34' E 013°15'814.6
2018-Jun-10 08:58N 40°38' E 013°06'714.7
2018-Jun-10 08:30N 40°40' E 012°58'814.7
2018-Jun-10 07:57N 40°44' E 012°48'714.6
2018-Jun-10 07:28N 40°47' E 012°39'714.6
2018-Jun-10 06:58N 40°52' E 012°32'10514.4
2018-Jun-09 23:39N 42°08' E 010°55'314.5
2018-Jun-09 23:28N 42°10' E 010°53'814.8
2018-Jun-09 22:57N 42°15' E 010°46'1114.9
2018-Jun-09 22:15N 42°22' E 010°35'614.8
2018-Jun-09 21:50N 42°26' E 010°29'614.8
2018-Jun-09 21:26N 42°30' E 010°23'614.4
2018-Jun-09 21:00N 42°34' E 010°17'714.5
2018-Jun-09 20:30N 42°39' E 010°09'1413.3
2018-Jun-09 19:28N 42°51' E 009°60'714.7
2018-Jun-09 19:00N 42°58' E 009°60'715.0
2018-Jun-09 18:30N 43°05' E 009°59'815.6
2018-Jun-09 18:00N 43°12' E 009°54'815.8
2018-Jun-09 17:30N 43°19' E 009°48'816.0
2018-Jun-09 17:00N 43°26' E 009°42'815.8
2018-Jun-09 16:30N 43°32' E 009°36'815.7
2018-Jun-09 16:00N 43°39' E 009°30'815.8
2018-Jun-09 15:30N 43°45' E 009°23'1716.8
2018-Jun-09 14:30N 43°59' E 009°11'917.4
2018-Jun-09 14:00N 44°07' E 009°04'917.2
2018-Jun-09 13:30N 44°15' E 009°00'816.1
2018-Jun-09 13:00N 44°22' E 008°57'3 6.5
2018-Jun-09 12:30N 44°24' E 008°53'0 0.3
2018-Jun-09 11:59N 44°24' E 008°53'0 0.0
2018-Jun-09 11:29N 44°24' E 008°53'0 0.0
2018-Jun-09 10:59N 44°24' E 008°53'0 0.0
2018-Jun-09 10:29N 44°24' E 008°53'0 0.0
2018-Jun-09 09:59N 44°24' E 008°53'0 0.0
2018-Jun-09 09:29N 44°24' E 008°53'0 0.0
2018-Jun-09 08:56N 44°24' E 008°53'0 0.0
2018-Jun-09 08:28N 44°24' E 008°53'0 0.0
2018-Jun-09 07:55N 44°24' E 008°53'0 0.0
2018-Jun-09 07:28N 44°24' E 008°53'0 0.0
2018-Jun-09 06:59N 44°24' E 008°53'0 0.0
2018-Jun-09 06:29N 44°24' E 008°53'0 0.0
2018-Jun-09 05:59N 44°24' E 008°53'0 0.0
2018-Jun-09 05:29N 44°24' E 008°53'0 0.0
2018-Jun-09 04:59N 44°24' E 008°53'0 0.0
2018-Jun-09 04:29N 44°24' E 008°53'  
Track history (hours):
 
Tides and Currents Weather Stations Pressure Air Temp Water Temp Dewpoint Dewpoint Depression Visibility Wind Speed Wind Dir Waves Ship Positions

Grande Sierra Leone

Last reported at 2018-Jun-19 04:20 UTC. Time now 2018-Jun-19 18:28 UTC.
Position N 36°03' W 027°38'.

Length 212 m; draft 8.4 m.

Type: Cargo ship. MMSI: 247310400.

Date/timePositionNaut miles runAvg speedWind from/ knotsBaromVisibWave heightAir tempDewpointWater temp
2018-Jun-19 04:20N 36°03' W 027°38'617.0
2018-Jun-19 04:00N 36°03' W 027°31'1217.1
2018-Jun-19 03:18N 36°03' W 027°16'616.8
2018-Jun-19 02:55N 36°03' W 027°08'1616.9
2018-Jun-19 01:58N 36°03' W 026°48'816.8
2018-Jun-19 01:29N 36°03' W 026°38'4016.8
2018-Jun-18 23:07N 36°03' W 025°49'216.3
2018-Jun-18 23:00N 36°03' W 025°47'917.0
2018-Jun-18 22:30N 36°03' W 025°36'917.3
2018-Jun-18 22:00N 36°03' W 025°25'917.1
2018-Jun-18 21:30N 36°02' W 025°15'917.4
2018-Jun-18 21:01N 36°02' W 025°04'917.9
2018-Jun-18 20:30N 36°03' W 024°53'917.9
2018-Jun-18 20:00N 36°02' W 024°42'917.8
2018-Jun-18 19:31N 36°02' W 024°31'917.7
2018-Jun-18 19:00N 36°02' W 024°20'917.4
2018-Jun-18 18:30N 36°02' W 024°09'917.2
2018-Jun-18 18:01N 36°02' W 023°59'917.3
2018-Jun-18 17:30N 36°02' W 023°48'1317.2
2018-Jun-18 16:46N 36°02' W 023°32'617.6
2018-Jun-18 16:24N 36°02' W 023°24'717.2
2018-Jun-18 16:00N 36°02' W 023°16'917.3
2018-Jun-18 15:28N 36°02' W 023°05'917.3
2018-Jun-18 14:55N 36°02' W 022°53'917.1
2018-Jun-18 14:25N 36°02' W 022°42'717.5
2018-Jun-18 14:00N 36°02' W 022°33'1917.6
2018-Jun-18 12:55N 36°02' W 022°09'65316.8
2018-Jun-16 22:01N 35°58' W 008°42'116.6
2018-Jun-16 21:58N 35°58' W 008°41'1616.4
2018-Jun-16 21:00N 35°58' W 008°22'2416.7
2018-Jun-16 19:33N 35°58' W 007°52'116.9
2018-Jun-16 19:30N 35°57' W 007°51'2616.8
2018-Jun-16 17:56N 35°57' W 007°19'8516.7
2018-Jun-16 12:52N 35°58' W 005°34'515.1
2018-Jun-16 12:30N 35°59' W 005°28'714.1
2018-Jun-16 12:00N 36°02' W 005°19'21716.3
2018-Jun-15 22:41N 36°40' W 000°55'317.2
2018-Jun-15 22:29N 36°41' W 000°51'917.2
2018-Jun-15 21:59N 36°44' W 000°41'816.9
2018-Jun-15 21:30N 36°47' W 000°31'917.1
2018-Jun-15 21:00N 36°50' W 000°21'917.4
2018-Jun-15 20:30N 36°53' W 000°11'917.5
2018-Jun-15 20:00N 36°56' W 000°01'917.2
2018-Jun-15 19:30N 36°59' E 000°09'917.3
2018-Jun-15 19:00N 37°02' E 000°19'917.2
2018-Jun-15 18:30N 37°05' E 000°29'917.3
2018-Jun-15 18:00N 37°09' E 000°40'917.5
2018-Jun-15 17:30N 37°12' E 000°50'917.4
2018-Jun-15 17:00N 37°15' E 000°60'917.3
2018-Jun-15 16:30N 37°18' E 001°10'917.3
2018-Jun-15 16:00N 37°21' E 001°20'917.3
2018-Jun-15 15:30N 37°24' E 001°30'917.2
2018-Jun-15 15:00N 37°27' E 001°41'816.9
2018-Jun-15 14:30N 37°30' E 001°51'917.0
2018-Jun-15 13:58N 37°33' E 002°01'3517.1
2018-Jun-15 11:56N 37°46' E 002°42'716.5
2018-Jun-15 11:30N 37°48' E 002°51'816.2
2018-Jun-15 11:00N 37°51' E 003°00'815.9
2018-Jun-15 10:29N 37°54' E 003°10'815.9
2018-Jun-15 10:00N 37°57' E 003°19'815.8
2018-Jun-15 09:30N 37°59' E 003°29'815.8
2018-Jun-15 09:00N 38°01' E 003°38'56016.1
2018-Jun-13 22:17N 38°48' E 015°31'1516.4
2018-Jun-13 21:22N 38°36' E 015°43'716.3
2018-Jun-13 20:56N 38°31' E 015°49'5 0.2
2018-Jun-12 16:14N 38°28' E 015°55'5 4.0
2018-Jun-12 15:00N 38°30' E 015°49'5 5.7
2018-Jun-12 14:13N 38°33' E 015°45'417.2
2018-Jun-12 14:00N 38°36' E 015°43'9918.0
2018-Jun-12 08:31N 40°05' E 014°47'618.0
2018-Jun-12 08:11N 40°10' E 014°44'517.5
2018-Jun-12 07:52N 40°15' E 014°42'1317.6
2018-Jun-12 07:09N 40°28' E 014°42'317.7
2018-Jun-12 07:00N 40°31' E 014°42'6 0.1
2018-Jun-10 15:23N 40°37' E 014°43'614.1
2018-Jun-10 14:59N 40°32' E 014°38'1414.2
2018-Jun-10 14:00N 40°20' E 014°28'714.1
2018-Jun-10 13:30N 40°14' E 014°24'612.1
2018-Jun-10 13:00N 40°12' E 014°16'714.5
2018-Jun-10 12:30N 40°15' E 014°07'714.6
2018-Jun-10 12:00N 40°19' E 013°59'714.6
2018-Jun-10 11:30N 40°22' E 013°51'714.9
2018-Jun-10 11:00N 40°25' E 013°42'714.8
2018-Jun-10 10:30N 40°29' E 013°33'1114.7
2018-Jun-10 09:45N 40°33' E 013°19'414.6
2018-Jun-10 09:30N 40°34' E 013°15'814.6
2018-Jun-10 08:58N 40°38' E 013°06'714.7
2018-Jun-10 08:30N 40°40' E 012°58'814.7
2018-Jun-10 07:57N 40°44' E 012°48'714.6
2018-Jun-10 07:28N 40°47' E 012°39'714.6
2018-Jun-10 06:58N 40°52' E 012°32'10514.4
2018-Jun-09 23:39N 42°08' E 010°55'314.5
2018-Jun-09 23:28N 42°10' E 010°53'814.8
2018-Jun-09 22:57N 42°15' E 010°46'1114.9
2018-Jun-09 22:15N 42°22' E 010°35'614.8
2018-Jun-09 21:50N 42°26' E 010°29'614.8
2018-Jun-09 21:26N 42°30' E 010°23'614.4
2018-Jun-09 21:00N 42°34' E 010°17'714.5
2018-Jun-09 20:30N 42°39' E 010°09'1413.3
2018-Jun-09 19:28N 42°51' E 009°60'714.7
2018-Jun-09 19:00N 42°58' E 009°60'715.0
2018-Jun-09 18:30N 43°05' E 009°59'815.6
2018-Jun-09 18:00N 43°12' E 009°54'815.8
2018-Jun-09 17:30N 43°19' E 009°48'816.0
2018-Jun-09 17:00N 43°26' E 009°42'815.8
2018-Jun-09 16:30N 43°32' E 009°36'815.7
2018-Jun-09 16:00N 43°39' E 009°30'815.8
2018-Jun-09 15:30N 43°45' E 009°23'1716.8
2018-Jun-09 14:30N 43°59' E 009°11'917.4
2018-Jun-09 14:00N 44°07' E 009°04'917.2
2018-Jun-09 13:30N 44°15' E 009°00'816.1
2018-Jun-09 13:00N 44°22' E 008°57'3 6.5
2018-Jun-09 12:30N 44°24' E 008°53'0 0.3
2018-Jun-09 11:59N 44°24' E 008°53'0 0.0
2018-Jun-09 11:29N 44°24' E 008°53'0 0.0
2018-Jun-09 10:59N 44°24' E 008°53'0 0.0
2018-Jun-09 10:29N 44°24' E 008°53'0 0.0
2018-Jun-09 09:59N 44°24' E 008°53'0 0.0
2018-Jun-09 09:29N 44°24' E 008°53'0 0.0
2018-Jun-09 08:56N 44°24' E 008°53'0 0.0
2018-Jun-09 08:28N 44°24' E 008°53'0 0.0
2018-Jun-09 07:55N 44°24' E 008°53'0 0.0
2018-Jun-09 07:28N 44°24' E 008°53'0 0.0
2018-Jun-09 06:59N 44°24' E 008°53'0 0.0
2018-Jun-09 06:29N 44°24' E 008°53'0 0.0
2018-Jun-09 05:59N 44°24' E 008°53'0 0.0
2018-Jun-09 05:29N 44°24' E 008°53'0 0.0
2018-Jun-09 04:59N 44°24' E 008°53'0 0.0
2018-Jun-09 04:29N 44°24' E 008°53'  

Dump ship's entire track history